createdAt,value
2022-11-25T00:01:17.289Z,66.40
2022-11-25T00:03:45.602Z,69.33
2022-11-25T00:06:12.788Z,69.67
2022-11-25T00:08:40.783Z,68.23
2022-11-25T00:11:08.352Z,69.57
2022-11-25T00:13:35.979Z,65.73
2022-11-25T00:16:04.743Z,68.97
2022-11-25T00:18:32.241Z,65.90
2022-11-25T00:21:04.926Z,68.07
2022-11-25T00:23:33.466Z,66.37
2022-11-25T00:26:15.299Z,67.50
2022-11-25T00:28:45.124Z,66.17
2022-11-25T00:31:21.055Z,65.50
2022-11-25T00:33:48.955Z,64.57
2022-11-25T00:36:22.875Z,65.33
2022-11-25T00:39:07.197Z,62.23
2022-11-25T00:41:52.349Z,59.57
2022-11-25T00:44:37.788Z,58.83
2022-11-25T00:47:14.692Z,58.93
2022-11-25T00:49:47.235Z,60.33
2022-11-25T00:52:17.269Z,57.30
2022-11-25T00:54:44.992Z,59.03
2022-11-25T00:57:12.797Z,60.87
2022-11-25T00:59:40.441Z,58.00
2022-11-25T01:02:08.063Z,57.20
2022-11-25T01:04:35.416Z,55.63
2022-11-25T01:07:02.748Z,56.30
2022-11-25T01:09:30.899Z,56.10
2022-11-25T01:11:58.212Z,55.10
2022-11-25T01:14:25.662Z,56.33
2022-11-25T01:16:52.813Z,56.70
2022-11-25T01:19:20.582Z,56.73
2022-11-25T01:21:47.738Z,57.63
2022-11-25T01:24:16.153Z,54.70
2022-11-25T01:26:44.331Z,54.43
2022-11-25T01:29:18.549Z,54.23
2022-11-25T01:31:46.626Z,52.57
2022-11-25T01:34:17.062Z,53.83
2022-11-25T01:36:44.042Z,52.23
2022-11-25T01:39:18.390Z,51.63
2022-11-25T01:41:46.094Z,53.97
2022-11-25T01:44:17.685Z,51.23
2022-11-25T01:47:23.658Z,51.27
2022-11-25T01:50:05.164Z,52.10
2022-11-25T01:52:36.432Z,52.77
2022-11-25T01:55:13.647Z,52.27
2022-11-25T01:57:57.974Z,51.80
2022-11-25T02:00:25.674Z,50.70
2022-11-25T02:02:54.726Z,53.00
2022-11-25T02:05:38.688Z,50.97
2022-11-25T02:08:07.662Z,50.93
2022-11-25T02:10:36.854Z,51.47
2022-11-25T02:13:03.994Z,48.73
2022-11-25T02:15:35.025Z,49.77
2022-11-25T02:18:04.164Z,49.77
2022-11-25T02:20:31.375Z,51.17
2022-11-25T02:23:19.777Z,50.10
2022-11-25T02:25:47.912Z,47.97
2022-11-25T02:28:27.981Z,47.43
2022-11-25T02:30:55.329Z,47.97
2022-11-25T02:33:25.044Z,48.20
2022-11-25T02:36:05.464Z,48.70
2022-11-25T02:38:43.511Z,48.93
2022-11-25T02:41:27.377Z,48.33
2022-11-25T02:43:59.477Z,47.53
2022-11-25T02:46:28.468Z,48.77
2022-11-25T02:49:12.714Z,54.53
2022-11-25T02:51:44.877Z,50.03
2022-11-25T02:54:13.704Z,49.87
2022-11-25T02:56:40.875Z,49.33
2022-11-25T02:59:08.942Z,49.97
2022-11-25T03:01:36.678Z,51.33
2022-11-25T03:04:06.649Z,50.50
2022-11-25T03:06:33.999Z,51.73
2022-11-25T03:09:01.173Z,49.67
2022-11-25T03:11:47.190Z,48.93
2022-11-25T03:14:15.239Z,48.87
2022-11-25T03:16:43.281Z,46.17
2022-11-25T03:19:10.416Z,45.97
2022-11-25T03:21:37.324Z,46.23
2022-11-25T03:24:04.462Z,43.87
2022-11-25T03:26:31.519Z,44.50
2022-11-25T03:28:58.568Z,43.40
2022-11-25T03:31:25.745Z,44.00
2022-11-25T03:33:52.663Z,44.03
2022-11-25T03:36:21.343Z,43.90
2022-11-25T03:38:48.489Z,43.53
2022-11-25T03:41:15.842Z,42.63
2022-11-25T03:43:42.800Z,44.23
2022-11-25T03:46:10.314Z,47.10
2022-11-25T03:48:37.815Z,47.77
2022-11-25T03:51:05.178Z,46.40
2022-11-25T03:53:32.473Z,47.10
2022-11-25T03:56:02.238Z,46.57
2022-11-25T03:58:29.856Z,46.03
2022-11-25T04:01:04.525Z,44.37
2022-11-25T04:03:32.654Z,44.77
2022-11-25T04:06:00.102Z,45.00
2022-11-25T04:08:31.380Z,44.27
2022-11-25T04:10:59.067Z,42.90
2022-11-25T04:13:32.886Z,40.90
2022-11-25T04:15:59.927Z,41.67
2022-11-25T04:18:27.734Z,41.50
2022-11-25T04:20:58.294Z,39.77
2022-11-25T04:23:26.241Z,43.87
2022-11-25T04:25:59.316Z,42.23
2022-11-25T04:28:39.181Z,45.37
2022-11-25T04:31:07.955Z,44.40
2022-11-25T04:33:37.553Z,42.87
2022-11-25T04:36:04.789Z,41.43
2022-11-25T04:38:31.897Z,43.63
2022-11-25T04:40:58.882Z,43.93
2022-11-25T04:43:26.625Z,42.67
2022-11-25T04:46:16.678Z,41.13
2022-11-25T04:48:47.754Z,42.73
2022-11-25T04:51:16.086Z,45.40
2022-11-25T04:53:44.223Z,43.73
2022-11-25T04:56:18.543Z,43.60
2022-11-25T04:59:05.015Z,43.03
2022-11-25T05:01:34.669Z,41.43
2022-11-25T05:04:11.175Z,43.43
2022-11-25T05:06:38.781Z,44.50
2022-11-25T05:09:06.962Z,46.83
2022-11-25T05:11:36.589Z,47.47
2022-11-25T05:14:04.127Z,47.67
2022-11-25T05:16:31.676Z,48.90
2022-11-25T05:18:59.415Z,48.73
2022-11-25T05:21:27.934Z,50.13
2022-11-25T05:23:56.126Z,49.70
2022-11-25T05:26:25.575Z,51.43
2022-11-25T05:28:55.921Z,51.73
2022-11-25T05:31:23.086Z,52.27
2022-11-25T05:33:50.923Z,53.13
2022-11-25T05:36:18.993Z,50.60
2022-11-25T05:38:48.166Z,51.73
2022-11-25T05:41:21.594Z,50.57
2022-11-25T05:43:51.540Z,52.10
2022-11-25T05:46:19.195Z,53.27
2022-11-25T05:48:54.679Z,54.40
2022-11-25T05:51:22.883Z,55.00
2022-11-25T05:53:52.857Z,55.10
2022-11-25T05:56:22.379Z,57.43
2022-11-25T05:58:55.494Z,54.87
2022-11-25T06:01:30.057Z,56.80
2022-11-25T06:04:01.126Z,55.20
2022-11-25T06:06:29.901Z,57.77
2022-11-25T06:08:57.108Z,57.23
2022-11-25T06:11:25.785Z,57.73
2022-11-25T06:13:53.026Z,56.33
2022-11-25T06:16:22.570Z,55.97
2022-11-25T06:18:57.172Z,58.33
2022-11-25T06:21:24.187Z,57.77
2022-11-25T06:23:51.147Z,56.37
2022-11-25T06:26:21.838Z,56.13
2022-11-25T06:28:53.895Z,56.80
2022-11-25T06:31:24.823Z,57.37
2022-11-25T06:34:06.591Z,59.07
2022-11-25T06:36:33.728Z,60.93
2022-11-25T06:39:00.600Z,59.97
2022-11-25T06:41:27.588Z,60.73
2022-11-25T06:43:54.557Z,59.53
2022-11-25T06:46:25.163Z,59.80
2022-11-25T06:48:53.861Z,60.43
2022-11-25T06:51:21.169Z,62.93
2022-11-25T06:53:48.367Z,60.67
2022-11-25T06:56:24.802Z,68.10
2022-11-25T06:58:53.107Z,64.80
2022-11-25T07:01:23.593Z,66.33
2022-11-25T07:03:58.435Z,65.60
2022-11-25T07:06:25.675Z,64.77
2022-11-25T07:08:52.998Z,67.77
2022-11-25T07:11:27.518Z,67.17
2022-11-25T07:13:57.467Z,69.00
2022-11-25T07:16:24.848Z,67.13
2022-11-25T07:18:51.908Z,69.67
2022-11-25T07:21:22.977Z,66.80
2022-11-25T07:23:51.846Z,69.43
2022-11-25T07:26:21.938Z,68.73
2022-11-25T07:28:51.425Z,70.63
2022-11-25T07:31:28.276Z,73.17
2022-11-25T07:34:06.823Z,69.73
2022-11-25T07:36:35.238Z,70.90
2022-11-25T07:39:06.057Z,72.17
2022-11-25T07:41:33.403Z,74.33
2022-11-25T07:44:02.814Z,70.03
2022-11-25T07:46:38.501Z,73.57
2022-11-25T07:49:08.230Z,73.07
2022-11-25T07:51:53.938Z,73.67
2022-11-25T07:54:22.194Z,71.10
2022-11-25T07:56:50.946Z,71.97
2022-11-25T07:59:20.132Z,74.50
2022-11-25T08:01:49.690Z,74.97
2022-11-25T08:04:20.566Z,75.73
2022-11-25T08:06:50.335Z,72.67
2022-11-25T08:09:20.114Z,74.00
2022-11-25T08:11:47.975Z,75.73
2022-11-25T08:14:15.516Z,74.13
2022-11-25T08:16:42.879Z,72.97
2022-11-25T08:19:14.011Z,74.37
2022-11-25T08:21:41.765Z,75.67
2022-11-25T08:24:13.435Z,72.93
2022-11-25T08:26:40.342Z,71.33
2022-11-25T08:29:07.881Z,75.50
2022-11-25T08:31:38.043Z,70.60
2022-11-25T08:34:07.113Z,69.67
2022-11-25T08:36:35.767Z,70.90
2022-11-25T08:39:28.887Z,70.03
2022-11-25T08:41:54.162Z,69.53
2022-11-25T08:44:21.066Z,70.27
2022-11-25T08:46:48.132Z,70.63
2022-11-25T08:49:17.401Z,68.17
2022-11-25T08:51:44.681Z,69.13
2022-11-25T08:54:11.754Z,66.77
2022-11-25T08:56:38.918Z,66.10
2022-11-25T08:59:06.198Z,65.03
2022-11-25T09:01:33.173Z,64.17
2022-11-25T09:04:00.661Z,61.67
2022-11-25T09:06:29.416Z,64.07
2022-11-25T09:09:01.937Z,64.20
2022-11-25T09:11:29.277Z,62.20
2022-11-25T09:13:56.412Z,64.80
2022-11-25T09:16:24.539Z,62.30
2022-11-25T09:18:56.080Z,64.67
2022-11-25T09:21:25.185Z,63.93
2022-11-25T09:23:54.607Z,62.13
2022-11-25T09:26:27.986Z,62.17
2022-11-25T09:28:55.455Z,63.40
2022-11-25T09:31:23.591Z,59.60
2022-11-25T09:33:50.623Z,60.40
2022-11-25T09:36:19.128Z,60.30
2022-11-25T09:38:46.179Z,61.43
2022-11-25T09:41:47.005Z,65.20
2022-11-25T09:44:42.206Z,65.93
2022-11-25T09:47:21.169Z,66.40
2022-11-25T09:50:16.843Z,66.17
2022-11-25T09:53:01.963Z,65.57
2022-11-25T09:55:35.513Z,62.07
2022-11-25T09:58:31.761Z,64.33
2022-11-25T10:01:00.269Z,64.53
2022-11-25T10:03:38.187Z,60.50
2022-11-25T10:06:26.388Z,63.77
2022-11-25T10:08:57.916Z,62.73
2022-11-25T10:11:46.583Z,62.37
2022-11-25T10:14:39.601Z,62.17
2022-11-25T10:17:34.664Z,59.47
2022-11-25T10:20:22.615Z,61.63
2022-11-25T10:22:59.527Z,62.97
2022-11-25T10:25:39.708Z,61.13
2022-11-25T10:28:19.612Z,62.17
2022-11-25T10:31:05.737Z,60.87
2022-11-25T10:33:38.127Z,60.10
2022-11-25T10:36:15.006Z,62.90
2022-11-25T10:38:45.521Z,61.63
2022-11-25T10:41:19.167Z,67.93
2022-11-25T10:43:47.766Z,66.53
2022-11-25T10:46:21.089Z,66.90
2022-11-25T10:49:01.815Z,70.57
2022-11-25T10:51:47.725Z,67.10
2022-11-25T10:54:38.998Z,70.30
2022-11-25T10:57:19.928Z,66.37
2022-11-25T10:59:58.504Z,68.10
2022-11-25T11:02:37.256Z,68.77
2022-11-25T11:05:31.119Z,68.20
2022-11-25T11:08:21.403Z,67.30
2022-11-25T11:11:14.254Z,64.80
2022-11-25T11:13:41.647Z,64.80
2022-11-25T11:16:36.269Z,69.93
2022-11-25T11:19:05.074Z,70.00
2022-11-25T11:21:38.168Z,68.43
2022-11-25T11:24:23.657Z,67.77
2022-11-25T11:27:03.203Z,69.63
2022-11-25T11:29:30.307Z,68.87
2022-11-25T11:32:04.193Z,73.53
2022-11-25T11:34:39.759Z,69.33
2022-11-25T11:37:27.376Z,72.43
2022-11-25T11:40:19.656Z,72.73
2022-11-25T11:43:07.673Z,72.53
2022-11-25T11:45:42.687Z,73.50
2022-11-25T11:48:16.055Z,68.20
2022-11-25T11:50:58.366Z,71.83
2022-11-25T11:53:37.112Z,70.93
2022-11-25T11:56:34.708Z,69.63
2022-11-25T11:59:36.484Z,69.30
2022-11-25T12:02:41.280Z,70.67
2022-11-25T12:05:14.431Z,70.67
2022-11-25T12:07:44.582Z,72.32
2022-11-25T12:10:36.825Z,71.07
2022-11-25T12:13:15.637Z,75.88
2022-11-25T12:16:03.830Z,77.83
2022-11-25T12:19:11.162Z,80.43
2022-11-25T12:21:54.833Z,77.73
2022-11-25T12:24:33.537Z,81.47
2022-11-25T12:27:05.258Z,75.40
2022-11-25T12:29:57.266Z,75.85
2022-11-25T12:32:35.982Z,76.57
2022-11-25T12:35:22.361Z,78.03
2022-11-25T12:38:25.761Z,77.83
2022-11-25T12:41:06.400Z,71.88
2022-11-25T12:43:34.019Z,75.65
2022-11-25T12:46:35.454Z,77.45
2022-11-25T12:49:03.262Z,78.15
2022-11-25T12:51:57.342Z,77.30
2022-11-25T12:54:34.289Z,66.97
2022-11-25T12:57:16.602Z,67.77
2022-11-25T13:03:27.163Z,66.30
2022-11-25T13:06:22.376Z,67.20
2022-11-25T13:09:27.431Z,66.03
2022-11-25T13:12:00.980Z,62.97
2022-11-25T13:15:01.812Z,63.53
2022-11-25T13:17:30.384Z,63.75
2022-11-25T13:20:28.767Z,66.40
2022-11-25T13:23:03.015Z,64.25
2022-11-25T13:25:30.508Z,64.75
2022-11-25T13:27:59.599Z,61.42
2022-11-25T13:30:32.509Z,62.80
2022-11-25T13:33:11.372Z,63.25
2022-11-25T13:35:49.509Z,61.60
2022-11-25T13:38:37.202Z,59.90
2022-11-25T13:41:37.017Z,61.25
2022-11-25T13:44:04.013Z,62.00
2022-11-25T13:46:44.170Z,61.88
2022-11-25T13:49:44.355Z,59.28
2022-11-25T13:52:11.674Z,58.78
2022-11-25T13:54:50.492Z,57.65
2022-11-25T13:57:20.127Z,58.60
2022-11-25T14:00:26.901Z,59.30
2022-11-25T14:02:54.038Z,56.45
2022-11-25T14:05:50.524Z,60.28
2022-11-25T14:08:48.082Z,57.03
2022-11-25T14:11:54.184Z,56.67
2022-11-25T14:14:50.417Z,54.30
2022-11-25T14:17:45.359Z,53.60
2022-11-25T14:20:43.469Z,56.00
2022-11-25T14:23:31.205Z,56.80
2022-11-25T14:26:11.729Z,54.75
2022-11-25T14:29:02.535Z,52.70
2022-11-25T14:31:45.597Z,52.80
2022-11-25T14:34:21.524Z,53.08
2022-11-25T14:36:56.508Z,53.80
2022-11-25T14:39:36.096Z,51.85
2022-11-25T14:42:08.393Z,52.47
2022-11-25T14:44:45.410Z,50.22
2022-11-25T14:47:12.411Z,51.15
2022-11-25T14:49:52.057Z,53.53
2022-11-25T14:52:30.806Z,56.60
2022-11-25T14:54:59.950Z,53.22
2022-11-25T14:57:29.792Z,50.38
2022-11-25T15:00:02.807Z,94.88
2022-11-25T15:02:32.076Z,55.97
2022-11-25T15:05:08.176Z,53.60
2022-11-25T15:07:35.638Z,51.72
2022-11-25T15:10:02.610Z,51.40
2022-11-25T15:12:32.501Z,52.08
2022-11-25T15:15:00.233Z,52.22
2022-11-25T15:17:30.598Z,52.85
2022-11-25T15:20:04.361Z,52.50
2022-11-25T15:22:31.370Z,50.33
2022-11-25T15:25:10.370Z,51.25
2022-11-25T15:27:49.096Z,50.92
2022-11-25T15:30:25.625Z,50.22
2022-11-25T15:32:54.569Z,52.03
2022-11-25T15:35:23.903Z,51.08
2022-11-25T15:37:51.076Z,50.20
2022-11-25T15:40:39.624Z,51.55
2022-11-25T15:43:20.893Z,51.00
2022-11-25T15:45:52.560Z,51.55
2022-11-25T15:48:33.642Z,51.88
2022-11-25T15:51:06.086Z,52.38
2022-11-25T15:53:37.626Z,54.40
2022-11-25T15:56:06.637Z,54.80
2022-11-25T15:58:33.649Z,56.97
2022-11-25T16:01:25.883Z,56.28
2022-11-25T16:03:55.551Z,55.75
2022-11-25T16:06:28.688Z,55.30
2022-11-25T16:09:01.083Z,52.30
2022-11-25T16:11:33.175Z,53.70
2022-11-25T16:14:26.028Z,56.20
2022-11-25T16:17:15.731Z,55.22
2022-11-25T16:19:46.661Z,56.78
2022-11-25T16:22:17.212Z,53.77
2022-11-25T16:25:02.036Z,58.67
2022-11-25T16:27:31.383Z,57.53
2022-11-25T16:30:18.552Z,58.03
2022-11-25T16:32:45.640Z,57.00
2022-11-25T16:35:18.399Z,55.67
2022-11-25T16:37:48.876Z,54.60
2022-11-25T16:40:18.328Z,55.37
2022-11-25T16:42:50.380Z,54.30
2022-11-25T16:45:25.323Z,54.73
2022-11-25T16:47:52.560Z,54.03
2022-11-25T16:50:20.987Z,53.67
2022-11-25T16:52:50.229Z,52.57
2022-11-25T16:55:18.681Z,52.60
2022-11-25T16:57:45.985Z,57.03
2022-11-25T17:00:17.201Z,65.60
2022-11-25T17:02:45.017Z,70.67
2022-11-25T17:05:21.759Z,67.87
2022-11-25T17:07:52.501Z,65.85
2022-11-25T17:10:21.140Z,64.40
2022-11-25T17:12:49.625Z,69.85
2022-11-25T17:15:21.398Z,71.53
2022-11-25T17:17:49.613Z,69.87
2022-11-25T17:20:23.955Z,71.33
2022-11-25T17:22:52.831Z,70.80
2022-11-25T17:25:23.466Z,69.47
2022-11-25T17:27:51.519Z,69.13
2022-11-25T17:30:24.653Z,69.68
2022-11-25T17:33:16.002Z,69.07
2022-11-25T17:35:43.965Z,64.87
2022-11-25T17:38:17.498Z,65.30
2022-11-25T17:40:45.085Z,71.97
2022-11-25T17:43:17.135Z,67.43
2022-11-25T17:45:45.375Z,69.43
2022-11-25T17:48:15.622Z,79.33
2022-11-25T17:50:43.433Z,82.67
2022-11-25T17:53:10.456Z,87.43
2022-11-25T17:55:39.242Z,85.70
2022-11-25T17:58:08.536Z,81.40
2022-11-25T18:00:36.248Z,83.40
2022-11-25T18:03:03.270Z,79.95
2022-11-25T18:05:30.207Z,79.67
2022-11-25T18:07:57.216Z,77.97
2022-11-25T18:10:27.381Z,78.13
2022-11-25T18:12:56.290Z,75.23
2022-11-25T18:15:34.174Z,78.60
2022-11-25T18:18:21.187Z,83.50
2022-11-25T18:20:48.361Z,86.53
2022-11-25T18:23:15.430Z,88.90
2022-11-25T18:25:42.444Z,90.33
2022-11-25T18:28:25.791Z,90.27
2022-11-25T18:31:02.460Z,86.10
2022-11-25T18:33:30.052Z,87.90
2022-11-25T18:35:57.795Z,79.47
2022-11-25T18:38:24.752Z,78.43
2022-11-25T18:40:53.802Z,80.60
2022-11-25T18:43:24.896Z,80.77
2022-11-25T18:45:53.591Z,77.33
2022-11-25T18:48:24.133Z,73.40
2022-11-25T18:50:53.579Z,65.37
2022-11-25T18:53:20.916Z,58.73
2022-11-25T18:55:49.104Z,61.40
2022-11-25T18:58:21.371Z,47.83
2022-11-25T19:00:49.831Z,57.60
2022-11-25T19:03:19.378Z,53.33
2022-11-25T19:05:47.224Z,52.77
2022-11-25T19:08:14.404Z,55.33
2022-11-25T19:10:44.475Z,51.47
2022-11-25T19:13:20.451Z,50.77
2022-11-25T19:15:48.050Z,52.03
2022-11-25T19:18:23.150Z,53.97
2022-11-25T19:20:50.166Z,54.87
2022-11-25T19:23:25.477Z,55.53
2022-11-25T19:25:55.365Z,60.07
2022-11-25T19:28:22.638Z,59.20
2022-11-25T19:30:51.048Z,61.93
2022-11-25T19:33:29.184Z,58.90
2022-11-25T19:35:56.230Z,60.97
2022-11-25T19:38:26.191Z,59.27
2022-11-25T19:40:57.633Z,60.77
2022-11-25T19:43:27.161Z,51.80
2022-11-25T19:45:58.227Z,46.90
2022-11-25T19:48:28.382Z,45.83
2022-11-25T19:50:59.882Z,39.43
2022-11-25T19:53:33.388Z,37.73
2022-11-25T19:56:04.957Z,34.43
2022-11-25T19:58:32.288Z,35.47
2022-11-25T20:01:03.911Z,38.73
2022-11-25T20:03:31.683Z,45.50
2022-11-25T20:05:58.915Z,48.77
2022-11-25T20:08:27.986Z,50.83
2022-11-25T20:10:56.382Z,50.93
2022-11-25T20:13:27.054Z,53.60
2022-11-25T20:15:55.914Z,52.30
2022-11-25T20:18:25.672Z,50.17
2022-11-25T20:21:04.886Z,51.03
2022-11-25T20:23:44.260Z,51.23
2022-11-25T20:26:18.536Z,50.50
2022-11-25T20:28:45.911Z,52.97
2022-11-25T20:31:14.212Z,57.30
2022-11-25T20:33:41.497Z,54.17
2022-11-25T20:36:15.365Z,54.97
2022-11-25T20:38:47.390Z,57.20
2022-11-25T20:41:15.520Z,54.80
2022-11-25T20:43:44.674Z,55.73
2022-11-25T20:46:23.524Z,56.63
2022-11-25T20:48:55.443Z,55.47
2022-11-25T20:51:23.981Z,59.10
2022-11-25T20:53:53.677Z,56.33
2022-11-25T20:56:23.227Z,54.47
2022-11-25T20:58:50.233Z,56.67
2022-11-25T21:01:20.601Z,56.37
2022-11-25T21:03:49.273Z,60.07
2022-11-25T21:06:21.033Z,59.73
2022-11-25T21:08:50.285Z,57.27
2022-11-25T21:11:18.695Z,54.60
2022-11-25T21:13:46.591Z,57.77
2022-11-25T21:16:13.727Z,57.87
2022-11-25T21:18:41.786Z,60.33
2022-11-25T21:21:18.351Z,59.37
2022-11-25T21:23:46.731Z,58.20
2022-11-25T21:26:20.224Z,61.30
2022-11-25T21:28:49.293Z,63.30
2022-11-25T21:31:23.505Z,70.03
2022-11-25T21:33:51.676Z,68.77
2022-11-25T21:36:21.492Z,70.63
2022-11-25T21:38:51.415Z,69.03
2022-11-25T21:41:18.887Z,67.07
2022-11-25T21:43:49.488Z,65.67
2022-11-25T21:46:22.547Z,67.10
2022-11-25T21:48:50.027Z,67.13
2022-11-25T21:51:26.617Z,69.17
2022-11-25T21:53:54.435Z,70.13
2022-11-25T21:56:30.537Z,70.47
2022-11-25T21:58:59.775Z,69.63
2022-11-25T22:01:26.996Z,65.13
2022-11-25T22:03:54.157Z,68.77
2022-11-25T22:06:24.157Z,66.07
2022-11-25T22:08:51.901Z,65.37
2022-11-25T22:11:28.307Z,65.80
2022-11-25T22:13:55.360Z,59.70
2022-11-25T22:16:31.416Z,63.50
2022-11-25T22:18:59.402Z,63.03
2022-11-25T22:21:26.496Z,63.90
2022-11-25T22:23:53.423Z,63.80
2022-11-25T22:26:23.347Z,64.60
2022-11-25T22:28:51.934Z,63.87
2022-11-25T22:31:20.480Z,62.13
2022-11-25T22:33:47.858Z,63.03
2022-11-25T22:36:36.502Z,61.53
2022-11-25T22:39:14.577Z,61.57
2022-11-25T22:41:44.392Z,61.63
2022-11-25T22:44:29.777Z,63.97
2022-11-25T22:46:56.730Z,62.07
2022-11-25T22:49:30.782Z,61.57
2022-11-25T22:51:58.776Z,63.33
2022-11-25T22:54:25.690Z,67.53
2022-11-25T22:56:52.531Z,66.17
2022-11-25T22:59:19.646Z,68.40
2022-11-25T23:01:47.108Z,69.17
2022-11-25T23:04:18.970Z,69.07
2022-11-25T23:06:47.290Z,68.57
2022-11-25T23:09:19.355Z,68.57
2022-11-25T23:11:47.260Z,68.47
2022-11-25T23:14:14.508Z,67.20
2022-11-25T23:16:42.458Z,68.23
2022-11-25T23:19:14.954Z,66.00
2022-11-25T23:21:42.500Z,67.37
2022-11-25T23:24:15.359Z,67.27
2022-11-25T23:26:43.330Z,65.50
2022-11-25T23:29:10.312Z,66.87
2022-11-25T23:31:39.448Z,64.20
2022-11-25T23:34:07.905Z,63.80
2022-11-25T23:36:47.756Z,65.80
2022-11-25T23:39:20.967Z,67.43
2022-11-25T23:41:48.794Z,67.70
2022-11-25T23:44:17.661Z,68.07
2022-11-25T23:46:44.667Z,64.43
2022-11-25T23:49:35.352Z,64.67
2022-11-25T23:52:07.875Z,65.33
2022-11-25T23:54:46.856Z,68.30
2022-11-25T23:57:19.524Z,67.43
2022-11-25T23:59:47.360Z,64.60
